»·PEaware :: N314TR ZSPD-ZBAA

N314TR :: ZSPD-ZBAA

FLIGHT INFORMATION

Flight Status: Arrived
Operator: Privately registered:
United States
More flights under this callsign
Pilot: Timothy W. (9658)
Aircraft: BOEING 767-300
(B763)
More flights by this aircraft type
Origin: ZSPD Pudong
China
Destination: ZBAA Beijing Capital
China
More flights between these airports :: More routes between these airports
Route: SUF12X SUF DCT VMB A593 VYK VYK03A
File this flight plan on PilotEdge
Remarks:
Altitude:
(Current/Filed)
36,100ft
Speed:
(Current/Filed)
400kts
Departed: 23-Mar-16 10:18 AM
Arrived: 23-Mar-16 12:43 PM
Distance/Time
Traveled:
593nm/2:25
Distance/Time
To Go:
Arrived

Flight Plot

Page will automatically refresh every two minutes.


Map Options




Map Legend


Flown Route
Filed Route
Departure Airport
Arrival Airport
Navaid (VOR, NDB)
Fix

Horizontal Profiles

Position Reports

Time Latitude Longitude Heading Altitude Ground
Speed
23-Mar-16 09:47 31.147914 121.799759 252 24ft 0kts
23-Mar-16 09:48 31.147914 121.799759 252 24ft 0kts
23-Mar-16 09:49 31.147914 121.799759 252 24ft 0kts
23-Mar-16 09:50 31.147914 121.799759 252 24ft 0kts
23-Mar-16 09:51 31.147914 121.799759 252 24ft 0kts
23-Mar-16 09:52 31.147914 121.799759 252 24ft 0kts
23-Mar-16 09:53 31.147914 121.799759 252 24ft 0kts
23-Mar-16 09:54 31.147914 121.799759 252 24ft 0kts
23-Mar-16 09:55 31.147914 121.799759 252 24ft 0kts
23-Mar-16 09:56 31.147914 121.799759 252 24ft 0kts
23-Mar-16 09:57 31.147957 121.799927 252 24ft 0kts
23-Mar-16 09:58 31.148167 121.800247 167 24ft 0kts
23-Mar-16 09:59 31.148177 121.800244 163 24ft 0kts
23-Mar-16 10:00 31.148177 121.800244 163 24ft 0kts
23-Mar-16 10:01 31.148177 121.800244 163 24ft 0kts
23-Mar-16 10:02 31.147824 121.800347 165 24ft 4kts
23-Mar-16 10:03 31.145658 121.801049 181 24ft 10kts
23-Mar-16 10:04 31.144301 121.797551 252 24ft 13kts
23-Mar-16 10:05 31.141740 121.795537 161 24ft 15kts
23-Mar-16 10:06 31.137287 121.797222 162 24ft 18kts
23-Mar-16 10:07 31.132076 121.799164 160 24ft 21kts
23-Mar-16 10:08 31.128369 121.800595 161 24ft 9kts
23-Mar-16 10:09 31.127496 121.798763 347 24ft 0kts
23-Mar-16 10:10 31.148070 121.790942 350 635ft 154kts
23-Mar-16 10:11 31.198720 121.776378 343 3057ft 224kts
23-Mar-16 10:12 31.255625 121.754291 335 7552ft 217kts
23-Mar-16 10:13 31.314462 121.730464 329 10920ft 250kts
23-Mar-16 10:14 31.347325 121.661639 259 13648ft 283kts
23-Mar-16 10:15 31.325879 121.572381 261 17506ft 292kts
23-Mar-16 10:16 31.309387 121.478888 262 20896ft 303kts
23-Mar-16 10:17 31.292868 121.380595 262 23894ft 314kts
23-Mar-16 10:18 31.257920 121.284678 246 26397ft 338kts
23-Mar-16 10:19 31.213157 121.188392 262 28644ft 334kts
23-Mar-16 10:20 31.231511 121.083142 288 30653ft 345kts
23-Mar-16 10:21 31.271485 120.981544 289 33017ft 340kts
23-Mar-16 10:22 31.311775 120.883619 289 35071ft 332kts
23-Mar-16 10:23 31.352063 120.787098 289 36498ft 328kts
23-Mar-16 10:24 31.391717 120.691177 289 36503ft 328kts
23-Mar-16 10:25 31.431259 120.595157 289 36500ft 327kts
23-Mar-16 10:26 31.470748 120.498978 289 36896ft 327kts
23-Mar-16 10:27 31.521686 120.409380 308 37859ft 352kts
23-Mar-16 10:28 31.596525 120.335686 308 38488ft 353kts
23-Mar-16 10:29 31.671387 120.262194 308 38492ft 351kts
23-Mar-16 10:30 31.746215 120.188907 310 38502ft 354kts
23-Mar-16 10:31 31.826694 120.120588 311 38525ft 356kts
23-Mar-16 10:32 31.906703 120.052462 311 38545ft 356kts
23-Mar-16 10:33 31.986705 119.984163 311 38564ft 356kts
23-Mar-16 10:34 32.066814 119.915618 311 38562ft 356kts
23-Mar-16 10:35 32.133702 119.858722 311 38589ft 355kts
23-Mar-16 10:36 32.226871 119.778902 311 38587ft 355kts
23-Mar-16 10:37 32.293296 119.722015 311 38585ft 355kts
23-Mar-16 10:38 32.373489 119.653337 311 38583ft 355kts
23-Mar-16 10:39 32.453106 119.584995 311 38581ft 355kts
23-Mar-16 10:40 32.532921 119.515992 311 38579ft 355kts
23-Mar-16 10:41 32.612649 119.446836 311 38579ft 355kts
23-Mar-16 10:42 32.692100 119.377765 311 38577ft 355kts
23-Mar-16 10:43 32.771661 119.308441 311 38574ft 355kts
23-Mar-16 10:44 32.851155 119.239018 311 38572ft 355kts
23-Mar-16 10:45 32.930562 119.169513 311 38570ft 355kts
23-Mar-16 10:46 33.010679 119.100316 311 38568ft 356kts
23-Mar-16 10:47 33.090775 119.031159 311 38566ft 356kts
23-Mar-16 10:48 33.170918 118.961798 311 38564ft 356kts
23-Mar-16 10:49 33.250850 118.892478 311 38577ft 356kts
23-Mar-16 10:50 33.331233 118.823216 311 38588ft 355kts
23-Mar-16 10:51 33.410836 118.753927 311 38586ft 355kts
23-Mar-16 10:52 33.490688 118.684393 311 38584ft 355kts
23-Mar-16 10:53 33.570844 118.614928 311 38584ft 355kts
23-Mar-16 10:54 33.650945 118.545340 311 38582ft 355kts
23-Mar-16 10:55 33.730850 118.475759 311 38579ft 355kts
23-Mar-16 10:56 33.810657 118.406098 311 38577ft 355kts
23-Mar-16 10:57 33.890452 118.336284 311 38575ft 355kts
23-Mar-16 10:58 33.970553 118.266045 311 38573ft 356kts
23-Mar-16 10:59 34.051096 118.196120 311 38571ft 358kts
23-Mar-16 11:00 34.132160 118.125584 311 38569ft 359kts
23-Mar-16 11:01 34.213213 118.054887 311 38567ft 360kts
23-Mar-16 11:02 34.299451 117.990875 327 38566ft 390kts
23-Mar-16 11:03 34.404187 117.953235 328 38563ft 393kts
23-Mar-16 11:04 34.508688 117.915872 328 38567ft 391kts
23-Mar-16 11:05 34.612670 117.879063 327 38600ft 389kts
23-Mar-16 11:06 34.715768 117.842267 327 38613ft 383kts
23-Mar-16 11:07 34.817896 117.805498 327 38614ft 383kts
23-Mar-16 11:08 34.919561 117.768441 327 38614ft 382kts
23-Mar-16 11:09 35.021483 117.731163 327 38613ft 382kts
23-Mar-16 11:10 35.123162 117.693880 327 38612ft 383kts
23-Mar-16 11:11 35.224941 117.656463 327 38610ft 383kts
23-Mar-16 11:12 35.326694 117.618957 327 38609ft 383kts
23-Mar-16 11:13 35.428558 117.581311 327 38608ft 383kts
23-Mar-16 11:14 35.530358 117.543590 327 38606ft 383kts
23-Mar-16 11:15 35.632038 117.505812 327 38607ft 383kts
23-Mar-16 11:16 35.733768 117.467914 327 38606ft 383kts
23-Mar-16 11:17 35.835717 117.429833 327 38605ft 383kts
23-Mar-16 11:18 35.937356 117.391766 327 38604ft 383kts
23-Mar-16 11:19 36.039184 117.353790 327 38606ft 384kts
23-Mar-16 11:20 36.141236 117.316071 327 38623ft 385kts
23-Mar-16 11:21 36.244235 117.277905 327 38627ft 386kts
23-Mar-16 11:22 36.345901 117.240123 327 38626ft 386kts
23-Mar-16 11:23 36.449564 117.201618 327 38624ft 386kts
23-Mar-16 11:24 36.552751 117.163491 327 38623ft 386kts
23-Mar-16 11:25 36.655302 117.125488 327 38624ft 386kts
23-Mar-16 11:26 36.758047 117.087306 327 38623ft 386kts
23-Mar-16 11:27 36.860643 117.048826 327 38621ft 386kts
23-Mar-16 11:28 36.963210 117.010228 327 38620ft 386kts
23-Mar-16 11:29 37.066188 116.971366 327 38619ft 386kts
23-Mar-16 11:30 37.168737 116.932517 327 38618ft 385kts
23-Mar-16 11:31 37.271067 116.892983 327 38641ft 386kts
23-Mar-16 11:32 37.356690 116.861347 327 38563ft 387kts
23-Mar-16 11:33 37.476161 116.816404 327 37468ft 384kts
23-Mar-16 11:34 37.578357 116.777745 327 36547ft 384kts
23-Mar-16 11:35 37.680795 116.738872 327 35624ft 385kts
23-Mar-16 11:36 37.783556 116.699772 327 34694ft 387kts
23-Mar-16 11:37 37.869543 116.666970 327 33912ft 389kts
23-Mar-16 11:38 37.973506 116.627192 327 32963ft 393kts
23-Mar-16 11:39 38.079881 116.586338 329 30836ft 409kts
23-Mar-16 11:40 38.198515 116.576488 344 28339ft 424kts
23-Mar-16 11:41 38.308737 116.575988 343 26685ft 376kts
23-Mar-16 11:42 38.410768 116.575409 343 25653ft 359kts
23-Mar-16 11:43 38.509512 116.574901 343 24587ft 353kts
23-Mar-16 11:44 38.607477 116.574420 343 23429ft 353kts
23-Mar-16 11:45 38.706334 116.573908 344 21891ft 363kts
23-Mar-16 11:46 38.808765 116.573461 345 20037ft 372kts
23-Mar-16 11:47 38.910764 116.573062 345 18182ft 362kts
23-Mar-16 11:48 39.010042 116.572598 346 16434ft 353kts
23-Mar-16 11:49 39.106885 116.572145 346 14758ft 345kts
23-Mar-16 11:50 39.201690 116.571866 348 13102ft 339kts
23-Mar-16 11:51 39.294353 116.571535 349 11442ft 327kts
23-Mar-16 11:52 39.382778 116.592901 12 12242ft 319kts
23-Mar-16 11:53 39.417829 116.700398 108 12520ft 366kts
23-Mar-16 11:54 39.396267 116.823146 61 12624ft 360kts
23-Mar-16 11:55 39.464363 116.867583 320 12780ft 247kts
23-Mar-16 11:56 39.523090 116.823822 315 12428ft 241kts
23-Mar-16 11:57 39.518675 116.760272 213 12012ft 258kts
23-Mar-16 11:58 39.441962 116.751287 209 11598ft 268kts
23-Mar-16 11:59 39.376670 116.712509 222 11121ft 255kts
23-Mar-16 12:00 39.315419 116.665789 223 10630ft 257kts
23-Mar-16 12:01 39.253729 116.617554 223 10131ft 260kts
23-Mar-16 12:02 39.182768 116.597012 159 9803ft 319kts
23-Mar-16 12:03 39.158264 116.699522 51 9802ft 318kts
23-Mar-16 12:04 39.225719 116.747607 6 9790ft 274kts
23-Mar-16 12:05 39.297418 116.779464 6 9843ft 276kts
23-Mar-16 12:06 39.365431 116.829578 32 9796ft 299kts
23-Mar-16 12:07 39.422884 116.909169 37 9787ft 305kts
23-Mar-16 12:08 39.491591 116.940260 350 9785ft 251kts
23-Mar-16 12:09 39.556084 116.941759 347 9215ft 218kts
23-Mar-16 12:10 39.615976 116.941922 349 8747ft 214kts
23-Mar-16 12:11 39.675408 116.942046 350 8286ft 212kts
23-Mar-16 12:12 39.733965 116.942162 351 7822ft 210kts
23-Mar-16 12:13 39.792068 116.942279 352 7353ft 208kts
23-Mar-16 12:14 39.847877 116.933888 312 6910ft 199kts
23-Mar-16 12:15 39.849047 116.860306 270 6917ft 213kts
23-Mar-16 12:16 39.838066 116.784824 239 6904ft 230kts
23-Mar-16 12:17 39.770617 116.779006 175 6922ft 266kts
23-Mar-16 12:18 39.697308 116.792650 177 6915ft 265kts
23-Mar-16 12:19 39.624337 116.805205 177 6901ft 264kts
23-Mar-16 12:20 39.551458 116.817708 179 6892ft 263kts
23-Mar-16 12:21 39.517397 116.770036 306 6888ft 189kts
23-Mar-16 12:22 39.563550 116.745443 328 6898ft 179kts
23-Mar-16 12:23 39.603431 116.707529 318 6902ft 178kts
23-Mar-16 12:24 39.641101 116.665655 339 6438ft 182kts
23-Mar-16 12:25 39.692311 116.657670 349 5987ft 185kts
23-Mar-16 12:26 39.740286 116.650397 349 5902ft 163kts
23-Mar-16 12:27 39.785387 116.643323 349 5579ft 163kts
23-Mar-16 12:28 39.826311 116.636895 348 4691ft 145kts
23-Mar-16 12:29 39.866560 116.630460 349 3869ft 147kts
23-Mar-16 12:30 39.907628 116.623911 350 3050ft 150kts
23-Mar-16 12:31 39.948442 116.617409 351 2236ft 142kts
23-Mar-16 12:32 39.986871 116.611277 351 1461ft 132kts
23-Mar-16 12:33 40.021636 116.605714 351 804ft 123kts
23-Mar-16 12:34 40.055562 116.600280 351 170ft 123kts
23-Mar-16 12:35 40.078518 116.596478 344 127ft 39kts
23-Mar-16 12:36 40.080737 116.594853 327 127ft 5kts
23-Mar-16 12:37 40.080992 116.593085 265 127ft 9kts
23-Mar-16 12:38 40.080788 116.589737 251 127ft 1kts
23-Mar-16 12:39 40.080721 116.589371 260 127ft 0kts
23-Mar-16 12:40 40.080721 116.589371 260 127ft 0kts
23-Mar-16 12:41 40.080721 116.589371 260 127ft 0kts
23-Mar-16 12:42 40.080721 116.589371 260 127ft 0kts
23-Mar-16 12:43 40.080721 116.589371 260 127ft 0kts
23-Mar-16 12:44 40.080721 116.589371 260 127ft 0kts
23-Mar-16 12:45 40.080721 116.589371 260 127ft 0kts
23-Mar-16 12:46 40.080721 116.589371 260 127ft 0kts
23-Mar-16 12:47 40.080721 116.589371 260 127ft 0kts
23-Mar-16 12:48 40.080721 116.589371 260 127ft 0kts

Navigation Log

Ident Type
Flight plan parsing failed, navigation log unavailable